createdAt,value
2023-03-18T00:00:16.988Z,56.36
2023-03-18T00:01:20.149Z,55.90
2023-03-18T00:02:25.915Z,56.75
2023-03-18T00:03:35.234Z,56.38
2023-03-18T00:04:38.219Z,56.12
2023-03-18T00:05:43.806Z,56.23
2023-03-18T00:06:49.380Z,56.34
2023-03-18T00:07:54.239Z,57.32
2023-03-18T00:08:58.376Z,56.41
2023-03-18T00:10:10.495Z,56.88
2023-03-18T00:11:16.177Z,57.55
2023-03-18T00:12:19.374Z,57.42
2023-03-18T00:13:23.340Z,57.22
2023-03-18T00:14:31.877Z,57.59
2023-03-18T00:15:35.632Z,57.46
2023-03-18T00:16:43.365Z,57.55
2023-03-18T00:17:56.428Z,57.32
2023-03-18T00:18:59.296Z,57.23
2023-03-18T00:20:07.198Z,57.26
2023-03-18T00:21:13.909Z,57.55
2023-03-18T00:22:27.235Z,57.31
2023-03-18T00:23:32.339Z,57.37
2023-03-18T00:24:36.180Z,57.36
2023-03-18T00:25:42.977Z,57.73
2023-03-18T00:26:47.412Z,57.59
2023-03-18T00:27:54.131Z,57.12
2023-03-18T00:29:00.275Z,57.58
2023-03-18T00:30:06.269Z,58.26
2023-03-18T00:31:13.335Z,57.69
2023-03-18T00:32:20.810Z,58.00
2023-03-18T00:33:24.852Z,57.88
2023-03-18T00:34:30.276Z,57.74
2023-03-18T00:35:41.585Z,58.05
2023-03-18T00:36:58.646Z,58.43
2023-03-18T00:38:05.376Z,58.23
2023-03-18T00:39:11.769Z,58.20
2023-03-18T00:42:21.250Z,58.80
2023-03-18T00:43:53.431Z,58.75
2023-03-18T00:45:30.517Z,58.69
2023-03-18T00:47:07.950Z,58.71
2023-03-18T00:48:16.519Z,58.83
2023-03-18T00:49:53.618Z,58.76
2023-03-18T00:50:58.972Z,58.90
2023-03-18T00:52:32.436Z,58.88
2023-03-18T00:53:43.320Z,59.21
2023-03-18T00:54:51.696Z,58.71
2023-03-18T00:56:07.106Z,59.43
2023-03-18T00:57:29.975Z,59.74
2023-03-18T00:59:04.232Z,59.36
2023-03-18T01:00:16.164Z,59.74
2023-03-18T01:01:27.816Z,59.60
2023-03-18T01:02:44.746Z,59.67
2023-03-18T01:03:52.050Z,60.20
2023-03-18T01:04:57.315Z,59.57
2023-03-18T01:06:02.323Z,59.77
2023-03-18T01:07:05.832Z,60.55
2023-03-18T01:08:08.629Z,60.30
2023-03-18T01:09:11.990Z,60.13
2023-03-18T01:10:16.480Z,60.18
2023-03-18T01:11:23.677Z,60.54
2023-03-18T01:12:25.881Z,60.13
2023-03-18T01:13:29.244Z,60.32
2023-03-18T01:14:32.612Z,60.03
2023-03-18T01:15:34.971Z,60.46
2023-03-18T01:16:38.728Z,60.61
2023-03-18T01:17:41.157Z,60.90
2023-03-18T01:18:43.940Z,60.41
2023-03-18T01:19:49.326Z,60.78
2023-03-18T01:20:52.010Z,60.94
2023-03-18T01:21:56.975Z,60.97
2023-03-18T01:23:01.084Z,61.70
2023-03-18T01:24:04.499Z,61.40
2023-03-18T01:25:10.156Z,61.31
2023-03-18T01:26:14.183Z,61.56
2023-03-18T01:27:19.871Z,62.53
2023-03-18T01:28:23.295Z,62.40
2023-03-18T01:29:25.686Z,62.57
2023-03-18T01:30:31.869Z,63.29
2023-03-18T01:31:35.943Z,62.81
2023-03-18T01:32:45.156Z,61.97
2023-03-18T01:33:48.148Z,62.67
2023-03-18T01:34:54.344Z,63.13
2023-03-18T01:36:00.461Z,63.25
2023-03-18T01:37:05.641Z,63.51
2023-03-18T01:38:16.125Z,63.00
2023-03-18T01:39:18.374Z,63.76
2023-03-18T01:40:26.614Z,63.51
2023-03-18T01:41:31.410Z,64.38
2023-03-18T01:42:36.698Z,63.69
2023-03-18T01:43:43.323Z,63.58
2023-03-18T01:44:47.347Z,63.73
2023-03-18T01:45:53.784Z,62.92
2023-03-18T01:46:56.984Z,63.20
2023-03-18T01:48:01.933Z,63.17
2023-03-18T01:49:14.032Z,63.05
2023-03-18T01:50:22.535Z,63.07
2023-03-18T01:51:29.494Z,63.45
2023-03-18T01:52:34.196Z,63.19
2023-03-18T01:53:42.695Z,63.73
2023-03-18T01:55:12.096Z,63.99
2023-03-18T01:56:18.181Z,64.05
2023-03-18T01:57:22.549Z,63.96
2023-03-18T01:58:40.187Z,64.29
2023-03-18T01:59:47.402Z,64.75
2023-03-18T02:01:26.614Z,64.26
2023-03-18T02:02:31.257Z,64.76
2023-03-18T02:03:37.988Z,64.90
2023-03-18T02:04:48.054Z,65.45
2023-03-18T02:05:54.299Z,65.70
2023-03-18T02:07:00.341Z,65.07
2023-03-18T02:08:04.610Z,65.56
2023-03-18T02:09:10.001Z,65.85
2023-03-18T02:10:16.293Z,66.78
2023-03-18T02:11:19.240Z,66.44
2023-03-18T02:12:26.712Z,66.76
2023-03-18T02:13:34.952Z,67.31
2023-03-18T02:14:37.676Z,67.14
2023-03-18T02:15:57.148Z,67.34
2023-03-18T02:17:05.585Z,67.20
2023-03-18T02:18:21.510Z,67.37
2023-03-18T02:19:36.362Z,67.27
2023-03-18T02:21:03.814Z,68.22
2023-03-18T02:22:40.091Z,68.65
2023-03-18T02:24:03.152Z,68.51
2023-03-18T02:25:37.006Z,68.61
2023-03-18T02:26:59.247Z,68.19
2023-03-18T02:28:12.668Z,69.13
2023-03-18T02:29:19.734Z,68.50
2023-03-18T02:30:40.496Z,68.97
2023-03-18T02:31:45.327Z,68.55
2023-03-18T02:32:54.375Z,68.85
2023-03-18T02:33:57.826Z,68.84
2023-03-18T02:35:04.167Z,69.79
2023-03-18T02:36:13.668Z,69.91
2023-03-18T02:37:18.198Z,69.43
2023-03-18T02:38:22.332Z,69.46
2023-03-18T02:39:26.152Z,69.51
2023-03-18T02:40:34.790Z,69.71
2023-03-18T02:41:40.844Z,69.71
2023-03-18T02:42:44.457Z,69.75
2023-03-18T02:43:49.195Z,69.79
2023-03-18T02:44:52.381Z,69.67
2023-03-18T02:46:52.724Z,70.03
2023-03-18T02:47:56.412Z,69.84
2023-03-18T02:49:01.975Z,69.82
2023-03-18T02:50:12.226Z,70.51
2023-03-18T02:51:18.860Z,70.30
2023-03-18T02:52:23.525Z,69.83
2023-03-18T02:53:30.451Z,70.21
2023-03-18T02:54:33.259Z,69.82
2023-03-18T02:55:38.655Z,69.76
2023-03-18T02:56:43.663Z,68.82
2023-03-18T02:57:47.295Z,68.99
2023-03-18T02:58:51.642Z,69.19
2023-03-18T02:59:54.745Z,69.41
2023-03-18T03:00:57.785Z,70.07
2023-03-18T03:02:02.248Z,69.55
2023-03-18T03:03:06.402Z,69.04
2023-03-18T03:04:11.244Z,69.29
2023-03-18T03:05:13.919Z,69.48
2023-03-18T03:06:17.122Z,69.40
2023-03-18T03:07:20.750Z,69.40
2023-03-18T03:08:29.656Z,69.52
2023-03-18T03:09:31.874Z,70.22
2023-03-18T03:10:35.577Z,69.83
2023-03-18T03:11:38.112Z,69.77
2023-03-18T03:12:47.879Z,69.46
2023-03-18T03:13:53.708Z,69.24
2023-03-18T03:14:56.827Z,69.61
2023-03-18T03:16:03.190Z,70.01
2023-03-18T03:17:07.209Z,69.48
2023-03-18T03:18:12.237Z,69.31
2023-03-18T03:19:14.856Z,69.44
2023-03-18T03:20:18.363Z,68.99
2023-03-18T03:21:21.727Z,68.99
2023-03-18T03:22:24.109Z,70.16
2023-03-18T03:23:28.648Z,70.27
2023-03-18T03:24:35.432Z,70.82
2023-03-18T03:25:39.093Z,70.47
2023-03-18T03:26:42.266Z,70.25
2023-03-18T03:27:44.821Z,70.72
2023-03-18T03:28:48.131Z,70.43
2023-03-18T03:29:50.685Z,69.56
2023-03-18T03:30:56.220Z,69.24
2023-03-18T03:31:58.562Z,70.04
2023-03-18T03:33:01.746Z,70.03
2023-03-18T03:34:05.571Z,70.62
2023-03-18T03:35:15.863Z,70.86
2023-03-18T03:36:19.118Z,70.91
2023-03-18T03:37:22.095Z,71.05
2023-03-18T03:38:24.539Z,70.62
2023-03-18T03:39:33.205Z,71.44
2023-03-18T03:40:35.722Z,71.13
2023-03-18T03:41:40.494Z,71.32
2023-03-18T03:42:45.258Z,71.76
2023-03-18T03:43:47.730Z,72.14
2023-03-18T03:44:50.544Z,72.20
2023-03-18T03:45:52.879Z,72.16
2023-03-18T03:46:56.435Z,71.84
2023-03-18T03:48:00.326Z,72.76
2023-03-18T03:49:02.772Z,73.08
2023-03-18T03:50:07.357Z,72.25
2023-03-18T03:51:09.934Z,72.73
2023-03-18T03:52:12.456Z,73.43
2023-03-18T03:53:17.452Z,72.61
2023-03-18T03:54:21.217Z,73.04
2023-03-18T03:55:24.004Z,73.38
2023-03-18T03:56:28.440Z,73.31
2023-03-18T03:57:33.143Z,72.78
2023-03-18T03:58:36.364Z,73.20
2023-03-18T03:59:40.625Z,73.40
2023-03-18T04:00:56.090Z,74.10
2023-03-18T04:01:58.351Z,73.91
2023-03-18T04:03:02.417Z,74.29
2023-03-18T04:04:09.477Z,73.96
2023-03-18T04:05:16.108Z,74.10
2023-03-18T04:06:20.802Z,73.96
2023-03-18T04:07:32.729Z,74.32
2023-03-18T04:08:35.671Z,74.49
2023-03-18T04:09:41.380Z,74.49
2023-03-18T04:10:43.865Z,74.37
2023-03-18T04:11:48.817Z,74.94
2023-03-18T04:12:53.384Z,75.13
2023-03-18T04:13:56.225Z,75.12
2023-03-18T04:14:59.383Z,75.07
2023-03-18T04:16:03.206Z,74.61
2023-03-18T04:17:11.669Z,74.68
2023-03-18T04:18:17.390Z,74.95
2023-03-18T04:19:23.117Z,75.43
2023-03-18T04:20:27.788Z,75.48
2023-03-18T04:21:30.995Z,75.34
2023-03-18T04:22:35.773Z,75.13
2023-03-18T04:23:41.376Z,75.17
2023-03-18T04:24:49.068Z,76.09
2023-03-18T04:25:54.466Z,74.97
2023-03-18T04:26:56.943Z,74.95
2023-03-18T04:28:00.278Z,74.54
2023-03-18T04:29:04.953Z,74.35
2023-03-18T04:30:10.106Z,73.22
2023-03-18T04:31:24.128Z,73.62
2023-03-18T04:32:26.698Z,73.41
2023-03-18T04:33:29.938Z,73.99
2023-03-18T04:34:33.087Z,73.99
2023-03-18T04:35:35.859Z,73.39
2023-03-18T04:36:39.535Z,72.80
2023-03-18T04:37:46.775Z,72.01
2023-03-18T04:38:52.446Z,72.83
2023-03-18T04:40:00.660Z,71.87
2023-03-18T04:41:03.031Z,71.41
2023-03-18T04:42:05.867Z,70.34
2023-03-18T04:43:10.300Z,67.07
2023-03-18T04:44:14.984Z,63.13
2023-03-18T04:45:27.592Z,57.54
2023-03-18T04:46:40.236Z,53.35
2023-03-18T04:47:51.254Z,50.79
2023-03-18T04:48:55.407Z,47.77
2023-03-18T04:50:08.800Z,44.97
2023-03-18T04:51:23.581Z,43.30
2023-03-18T04:52:30.401Z,42.46
2023-03-18T04:53:46.763Z,42.90
2023-03-18T04:54:53.140Z,41.33
2023-03-18T04:56:27.588Z,40.69
2023-03-18T04:57:32.408Z,40.36
2023-03-18T04:58:45.411Z,39.49
2023-03-18T05:00:03.681Z,39.54
2023-03-18T05:01:07.545Z,38.02
2023-03-18T05:02:17.001Z,36.49
2023-03-18T05:03:25.677Z,36.80
2023-03-18T05:04:55.506Z,36.84
2023-03-18T05:05:59.919Z,35.99
2023-03-18T05:07:17.305Z,35.42
2023-03-18T05:08:30.355Z,33.86
2023-03-18T05:10:00.439Z,32.13
2023-03-18T05:11:05.948Z,31.72
2023-03-18T05:12:15.307Z,30.79
2023-03-18T05:13:29.414Z,30.44
2023-03-18T05:14:38.834Z,32.57
2023-03-18T05:17:06.363Z,30.87
2023-03-18T05:18:24.142Z,30.14
2023-03-18T05:19:37.991Z,30.16
2023-03-18T05:20:52.024Z,29.47
2023-03-18T05:22:05.181Z,29.22
2023-03-18T05:23:22.692Z,28.59
2023-03-18T05:24:35.563Z,27.94
2023-03-18T05:25:51.119Z,27.61
2023-03-18T05:27:07.433Z,26.63
2023-03-18T05:30:09.273Z,26.69
2023-03-18T05:33:28.066Z,28.04
2023-03-18T05:34:54.723Z,28.12
2023-03-18T05:36:21.974Z,27.55
2023-03-18T05:38:28.893Z,28.42
2023-03-18T05:41:23.242Z,31.00
2023-03-18T05:44:45.635Z,35.36
2023-03-18T05:46:02.888Z,36.18
2023-03-18T05:47:57.914Z,37.59
2023-03-18T05:49:09.076Z,38.89
2023-03-18T05:52:18.326Z,40.24
2023-03-18T05:53:35.226Z,41.34
2023-03-18T05:55:01.464Z,42.06
2023-03-18T05:56:15.133Z,42.03
2023-03-18T05:57:30.951Z,43.60
2023-03-18T05:58:40.578Z,43.17
2023-03-18T06:00:07.873Z,43.62
2023-03-18T06:01:24.081Z,44.33
2023-03-18T06:02:29.704Z,44.55
2023-03-18T06:03:33.810Z,44.98
2023-03-18T06:04:47.289Z,45.47
2023-03-18T06:05:51.712Z,45.83
2023-03-18T06:06:58.109Z,46.25
2023-03-18T06:08:10.288Z,46.17
2023-03-18T06:09:16.527Z,46.63
2023-03-18T06:12:40.475Z,48.29
2023-03-18T06:13:44.119Z,48.54
2023-03-18T06:14:50.335Z,49.13
2023-03-18T06:16:03.806Z,49.49
2023-03-18T06:17:41.082Z,49.98
2023-03-18T06:20:19.645Z,49.25
2023-03-18T06:21:24.919Z,49.92
2023-03-18T06:22:37.935Z,49.95
2023-03-18T06:23:50.388Z,49.70
2023-03-18T06:25:01.228Z,49.84
2023-03-18T06:26:09.851Z,49.43
2023-03-18T06:27:20.064Z,49.49
2023-03-18T06:28:29.945Z,49.75
2023-03-18T06:29:37.391Z,48.50
2023-03-18T06:30:52.297Z,46.32
2023-03-18T06:32:01.912Z,43.49
2023-03-18T06:33:08.819Z,41.86
2023-03-18T06:34:21.026Z,40.46
2023-03-18T06:35:30.667Z,39.03
2023-03-18T06:36:36.065Z,37.30
2023-03-18T06:37:44.192Z,35.69
2023-03-18T06:38:47.622Z,34.86
2023-03-18T06:40:28.706Z,33.29
2023-03-18T06:41:39.889Z,31.96
2023-03-18T06:49:20.672Z,29.24
2023-03-18T06:50:35.713Z,29.06
2023-03-18T06:52:20.224Z,27.92
2023-03-18T06:53:41.278Z,28.35
2023-03-18T06:59:13.893Z,27.32
2023-03-18T07:00:25.135Z,26.20
2023-03-18T07:01:38.178Z,26.56
2023-03-18T07:03:20.188Z,27.03
2023-03-18T07:04:30.651Z,25.76
2023-03-18T07:06:05.591Z,25.85
2023-03-18T07:07:14.555Z,24.58
2023-03-18T07:08:18.666Z,24.19
2023-03-18T07:09:23.990Z,23.67
2023-03-18T07:10:32.479Z,24.06
2023-03-18T07:11:48.729Z,24.65
2023-03-18T07:13:03.143Z,24.91
2023-03-18T07:14:12.559Z,24.80
2023-03-18T07:15:22.323Z,23.95
2023-03-18T07:16:37.527Z,23.30
2023-03-18T07:17:44.260Z,22.81
2023-03-18T07:18:54.453Z,22.57
2023-03-18T07:19:58.394Z,22.54
2023-03-18T07:21:03.564Z,23.74
2023-03-18T07:22:05.836Z,27.00
2023-03-18T07:23:08.368Z,26.52
2023-03-18T07:24:11.611Z,26.21
2023-03-18T07:25:23.201Z,25.37
2023-03-18T07:26:28.246Z,23.98
2023-03-18T07:27:37.130Z,24.52
2023-03-18T07:28:40.841Z,24.39
2023-03-18T07:29:43.257Z,24.28
2023-03-18T07:30:45.579Z,24.11
2023-03-18T07:31:48.654Z,25.51
2023-03-18T07:32:51.713Z,25.96
2023-03-18T07:33:53.877Z,25.51
2023-03-18T07:34:57.227Z,25.02
2023-03-18T07:36:01.200Z,26.33
2023-03-18T07:37:04.182Z,26.64
2023-03-18T07:38:06.190Z,26.99
2023-03-18T07:39:10.334Z,26.04
2023-03-18T07:40:14.789Z,25.19
2023-03-18T07:41:16.973Z,25.84
2023-03-18T07:42:19.457Z,26.47
2023-03-18T07:43:21.363Z,26.62
2023-03-18T07:44:24.075Z,26.66
2023-03-18T07:45:29.903Z,26.27
2023-03-18T07:46:32.233Z,24.34
2023-03-18T07:47:34.560Z,25.03
2023-03-18T07:48:36.607Z,24.59
2023-03-18T07:49:38.534Z,23.20
2023-03-18T07:50:41.462Z,22.10
2023-03-18T07:51:43.668Z,23.36
2023-03-18T07:52:45.614Z,23.22
2023-03-18T07:53:48.096Z,23.38
2023-03-18T07:54:51.461Z,24.02
2023-03-18T07:55:54.951Z,22.94
2023-03-18T07:56:57.206Z,22.07
2023-03-18T07:57:59.745Z,24.16
2023-03-18T07:59:01.660Z,21.92
2023-03-18T08:00:06.240Z,22.01
2023-03-18T08:01:18.540Z,22.16
2023-03-18T08:02:21.837Z,22.49
2023-03-18T08:03:24.129Z,21.83
2023-03-18T08:04:29.868Z,21.35
2023-03-18T08:05:32.463Z,21.03
2023-03-18T08:06:34.991Z,23.06
2023-03-18T08:07:38.076Z,21.99
2023-03-18T08:08:42.008Z,23.16
2023-03-18T08:09:44.095Z,23.33
2023-03-18T08:10:48.845Z,22.70
2023-03-18T08:11:53.097Z,23.29
2023-03-18T08:12:54.985Z,23.82
2023-03-18T08:13:56.991Z,22.59
2023-03-18T08:15:00.007Z,22.41
2023-03-18T08:16:02.481Z,22.87
2023-03-18T08:17:04.495Z,23.36
2023-03-18T08:18:09.083Z,24.04
2023-03-18T08:19:12.132Z,23.57
2023-03-18T08:20:15.397Z,23.36
2023-03-18T08:21:20.063Z,22.77
2023-03-18T08:22:24.226Z,22.81
2023-03-18T08:23:26.169Z,23.74
2023-03-18T08:24:28.855Z,24.87
2023-03-18T08:25:32.994Z,24.11
2023-03-18T08:26:43.765Z,24.04
2023-03-18T08:27:45.869Z,24.46
2023-03-18T08:29:20.848Z,25.65
2023-03-18T08:30:40.791Z,24.93
2023-03-18T08:31:44.513Z,26.84
2023-03-18T08:32:49.575Z,24.54
2023-03-18T08:33:54.272Z,24.48
2023-03-18T08:34:57.121Z,24.58
2023-03-18T08:36:12.546Z,24.39
2023-03-18T08:37:19.208Z,23.58
2023-03-18T08:38:24.318Z,26.07
2023-03-18T08:39:37.456Z,25.16
2023-03-18T08:40:50.137Z,24.69
2023-03-18T08:41:58.290Z,26.25
2023-03-18T08:43:00.660Z,25.13
2023-03-18T08:44:07.141Z,24.94
2023-03-18T08:45:11.203Z,23.54
2023-03-18T08:46:21.865Z,23.49
2023-03-18T08:47:56.706Z,23.61
2023-03-18T08:49:04.654Z,23.33
2023-03-18T08:50:19.082Z,23.97
2023-03-18T08:51:33.274Z,22.94
2023-03-18T08:52:49.815Z,24.10
2023-03-18T08:54:04.165Z,22.49
2023-03-18T08:55:49.363Z,23.09
2023-03-18T08:57:01.270Z,23.11
2023-03-18T08:58:14.275Z,23.24
2023-03-18T08:59:21.111Z,23.83
2023-03-18T09:00:41.454Z,23.59
2023-03-18T09:01:50.453Z,24.55
2023-03-18T09:03:06.852Z,24.83
2023-03-18T09:05:49.566Z,24.91
2023-03-18T09:08:41.052Z,24.51
2023-03-18T09:09:51.081Z,24.71
2023-03-18T09:11:22.623Z,24.65
2023-03-18T09:12:48.907Z,23.88
2023-03-18T09:13:58.043Z,24.64
2023-03-18T09:15:04.893Z,25.27
2023-03-18T09:16:09.874Z,27.04
2023-03-18T09:17:13.677Z,25.81
2023-03-18T09:18:25.537Z,24.87
2023-03-18T09:19:36.494Z,24.86
2023-03-18T09:20:51.120Z,25.02
2023-03-18T09:21:59.816Z,24.72
2023-03-18T09:23:09.832Z,24.33
2023-03-18T09:24:14.904Z,24.78
2023-03-18T09:25:26.138Z,24.31
2023-03-18T09:26:33.075Z,24.03
2023-03-18T09:27:39.512Z,24.31
2023-03-18T09:28:43.138Z,24.77
2023-03-18T09:29:47.302Z,24.21
2023-03-18T09:30:57.373Z,25.64
2023-03-18T09:32:03.558Z,24.94
2023-03-18T09:33:22.360Z,24.90
2023-03-18T09:34:27.284Z,25.28
2023-03-18T09:35:40.029Z,25.11
2023-03-18T09:37:00.349Z,24.77
2023-03-18T09:38:16.354Z,24.98
2023-03-18T09:39:26.511Z,25.08
2023-03-18T09:40:33.395Z,24.51
2023-03-18T09:42:00.750Z,25.17
2023-03-18T09:43:34.720Z,24.67
2023-03-18T09:44:42.685Z,25.00
2023-03-18T09:46:11.455Z,24.48
2023-03-18T09:47:36.175Z,24.70
2023-03-18T09:48:51.774Z,24.53
2023-03-18T09:50:29.273Z,25.34
2023-03-18T09:52:31.820Z,25.70
2023-03-18T09:53:51.271Z,26.05
2023-03-18T09:55:05.087Z,26.58
2023-03-18T09:56:16.202Z,25.56
2023-03-18T09:57:48.084Z,25.93
2023-03-18T09:59:09.393Z,27.17
2023-03-18T10:00:40.269Z,26.84
2023-03-18T10:01:47.886Z,27.01
2023-03-18T10:03:00.524Z,27.14
2023-03-18T10:04:23.546Z,27.61
2023-03-18T10:05:35.780Z,28.31
2023-03-18T10:06:43.159Z,27.66
2023-03-18T10:08:02.554Z,27.65
2023-03-18T10:09:24.438Z,27.72
2023-03-18T10:10:39.520Z,27.49
2023-03-18T10:11:47.224Z,28.20
2023-03-18T10:13:07.727Z,27.97
2023-03-18T10:14:28.179Z,28.42
2023-03-18T10:15:48.165Z,27.64
2023-03-18T10:17:17.355Z,28.29
2023-03-18T10:18:32.858Z,28.41
2023-03-18T10:19:46.168Z,28.16
2023-03-18T10:21:05.179Z,27.59
2023-03-18T10:22:28.642Z,28.03
2023-03-18T10:24:00.435Z,27.79
2023-03-18T10:25:27.254Z,28.26
2023-03-18T10:26:41.794Z,28.52
2023-03-18T10:27:57.469Z,28.48
2023-03-18T10:29:11.672Z,28.41
2023-03-18T10:30:31.704Z,28.62
2023-03-18T10:31:56.678Z,28.91
2023-03-18T10:33:18.040Z,29.36
2023-03-18T10:34:23.873Z,29.19
2023-03-18T10:35:33.372Z,30.08
2023-03-18T10:37:06.049Z,29.79
2023-03-18T10:38:32.012Z,28.74
2023-03-18T10:39:38.467Z,28.96
2023-03-18T10:40:44.324Z,29.17
2023-03-18T10:41:51.373Z,29.10
2023-03-18T10:42:56.650Z,29.10
2023-03-18T10:44:04.770Z,29.37
2023-03-18T10:45:35.075Z,28.77
2023-03-18T10:46:38.775Z,29.35
2023-03-18T10:47:48.098Z,29.42
2023-03-18T10:49:11.937Z,29.42
2023-03-18T10:50:39.064Z,29.57
2023-03-18T10:51:56.553Z,29.91
2023-03-18T10:53:16.176Z,29.06
2023-03-18T10:54:28.424Z,29.27
2023-03-18T10:55:38.337Z,28.53
2023-03-18T10:56:43.679Z,28.96
2023-03-18T10:57:49.807Z,29.56
2023-03-18T10:58:54.939Z,29.89
2023-03-18T10:59:57.981Z,29.78
2023-03-18T11:01:01.389Z,29.53
2023-03-18T11:02:17.540Z,29.94
2023-03-18T11:03:44.453Z,29.55
2023-03-18T11:04:58.579Z,29.94
2023-03-18T11:06:04.596Z,30.04
2023-03-18T11:07:15.102Z,29.65
2023-03-18T11:08:36.978Z,29.26
2023-03-18T11:09:42.664Z,29.43
2023-03-18T11:10:49.806Z,29.96
2023-03-18T11:12:05.518Z,30.01
2023-03-18T11:13:07.808Z,29.66
2023-03-18T11:14:21.149Z,28.87
2023-03-18T11:15:25.361Z,29.21
2023-03-18T11:16:45.905Z,29.29
2023-03-18T11:17:50.667Z,28.85
2023-03-18T11:18:55.557Z,28.72
2023-03-18T11:20:08.685Z,28.97
2023-03-18T11:21:14.720Z,29.03
2023-03-18T11:22:24.131Z,29.37
2023-03-18T11:23:49.395Z,29.47
2023-03-18T11:25:14.369Z,29.32
2023-03-18T11:26:30.125Z,29.44
2023-03-18T11:27:41.676Z,29.67
2023-03-18T11:28:45.840Z,29.79
2023-03-18T11:30:01.083Z,30.07
2023-03-18T11:31:06.742Z,29.38
2023-03-18T11:32:25.470Z,30.35
2023-03-18T11:33:38.563Z,30.51
2023-03-18T11:34:42.660Z,29.53
2023-03-18T11:35:58.468Z,29.68
2023-03-18T11:37:06.613Z,29.56
2023-03-18T11:38:18.006Z,28.87
2023-03-18T11:39:22.452Z,29.44
2023-03-18T11:40:28.306Z,29.35
2023-03-18T11:41:30.951Z,28.70
2023-03-18T11:42:34.643Z,28.46
2023-03-18T11:43:39.690Z,27.75
2023-03-18T11:44:43.103Z,28.07
2023-03-18T11:45:56.224Z,28.02
2023-03-18T11:47:24.747Z,28.53
2023-03-18T11:48:38.270Z,28.22
2023-03-18T11:49:45.972Z,27.88
2023-03-18T11:51:19.396Z,28.09
2023-03-18T11:52:53.144Z,27.11
2023-03-18T11:54:20.358Z,28.13
2023-03-18T11:55:44.189Z,28.25
2023-03-18T11:56:58.801Z,28.21
2023-03-18T11:58:16.684Z,27.48
2023-03-18T11:59:28.114Z,28.00
2023-03-18T12:00:46.238Z,27.67
2023-03-18T12:02:08.111Z,27.12
2023-03-18T12:03:21.767Z,27.64
2023-03-18T12:05:02.647Z,27.62
2023-03-18T12:06:25.099Z,27.66
2023-03-18T12:07:44.970Z,27.82
2023-03-18T12:08:55.277Z,27.32
2023-03-18T12:10:20.643Z,27.76
2023-03-18T12:11:56.136Z,27.64
2023-03-18T12:13:51.573Z,27.10
2023-03-18T12:15:39.890Z,27.66
2023-03-18T12:17:21.510Z,28.69
2023-03-18T12:21:10.727Z,26.77
2023-03-18T12:22:50.507Z,27.39
2023-03-18T12:24:53.601Z,27.51
2023-03-18T12:43:53.534Z,26.61
2023-03-18T12:45:52.804Z,26.71
2023-03-18T12:52:39.029Z,25.49
2023-03-18T12:53:58.707Z,25.45
2023-03-18T12:55:41.730Z,25.72
2023-03-18T12:57:16.020Z,25.36
2023-03-18T12:58:58.564Z,24.77
2023-03-18T13:02:44.177Z,25.89
2023-03-18T13:06:54.409Z,24.93
2023-03-18T13:33:02.055Z,24.35
2023-03-18T13:35:22.759Z,24.34
2023-03-18T13:37:51.583Z,24.05
2023-03-18T13:39:24.174Z,24.18
2023-03-18T14:05:40.013Z,24.57
2023-03-18T14:08:04.108Z,24.22
2023-03-18T14:11:24.365Z,24.38
2023-03-18T14:12:31.507Z,24.96
2023-03-18T14:13:35.078Z,24.96
2023-03-18T14:14:54.812Z,25.41
2023-03-18T14:15:59.720Z,24.81
2023-03-18T14:17:04.860Z,25.28
2023-03-18T14:18:38.596Z,25.73
2023-03-18T14:19:46.397Z,25.67
2023-03-18T14:20:54.071Z,25.06
2023-03-18T14:22:35.871Z,25.78
2023-03-18T14:23:43.169Z,25.20
2023-03-18T14:25:08.340Z,25.76
2023-03-18T14:26:21.616Z,25.60
2023-03-18T14:27:27.131Z,25.78
2023-03-18T14:28:45.508Z,26.22
2023-03-18T14:29:53.454Z,25.27
2023-03-18T14:31:38.538Z,26.11
2023-03-18T14:32:43.702Z,25.27
2023-03-18T14:34:20.135Z,25.70
2023-03-18T14:35:29.820Z,24.98
2023-03-18T14:36:53.526Z,25.47
2023-03-18T14:37:56.419Z,25.20
2023-03-18T14:39:06.021Z,25.73
2023-03-18T14:40:17.993Z,25.76
2023-03-18T14:41:28.781Z,25.94
2023-03-18T14:42:57.194Z,25.85
2023-03-18T14:44:03.052Z,25.31
2023-03-18T14:45:28.276Z,25.73
2023-03-18T14:46:36.692Z,25.93
2023-03-18T14:47:54.489Z,25.75
2023-03-18T14:48:56.717Z,25.78
2023-03-18T14:50:05.836Z,26.02
2023-03-18T14:51:22.924Z,25.64
2023-03-18T14:52:39.630Z,25.20
2023-03-18T14:54:21.394Z,25.49
2023-03-18T14:55:43.549Z,25.76
2023-03-18T14:56:56.468Z,25.44
2023-03-18T14:57:58.358Z,25.79
2023-03-18T14:59:02.813Z,25.70
2023-03-18T15:00:24.300Z,25.58
2023-03-18T15:01:41.206Z,25.74
2023-03-18T15:02:45.482Z,25.96
2023-03-18T15:03:50.763Z,26.18
2023-03-18T15:04:56.489Z,25.99
2023-03-18T15:06:02.523Z,25.97
2023-03-18T15:07:09.836Z,26.34
2023-03-18T15:08:22.747Z,26.45
2023-03-18T15:09:33.626Z,26.40
2023-03-18T15:10:36.391Z,26.05
2023-03-18T15:11:47.215Z,25.98
2023-03-18T15:13:01.414Z,26.25
2023-03-18T15:14:03.898Z,26.52
2023-03-18T15:15:21.697Z,26.88
2023-03-18T15:16:32.943Z,27.32
2023-03-18T15:17:49.632Z,26.81
2023-03-18T15:18:56.639Z,26.81
2023-03-18T15:20:02.125Z,26.53
2023-03-18T15:21:05.520Z,26.51
2023-03-18T15:22:10.929Z,26.82
2023-03-18T15:23:20.047Z,26.31
2023-03-18T15:24:27.299Z,26.92
2023-03-18T15:25:32.822Z,26.86
2023-03-18T15:26:48.824Z,26.54
2023-03-18T15:27:50.931Z,26.62
2023-03-18T15:28:56.544Z,26.68
2023-03-18T15:30:01.774Z,26.82
2023-03-18T15:31:07.046Z,26.95
2023-03-18T15:32:29.246Z,26.83
2023-03-18T15:33:38.609Z,26.71
2023-03-18T15:34:43.809Z,26.79
2023-03-18T15:36:08.820Z,27.09
2023-03-18T15:37:33.791Z,26.94
2023-03-18T15:38:35.958Z,27.30
2023-03-18T15:39:39.997Z,27.19
2023-03-18T15:40:44.662Z,27.06
2023-03-18T15:41:50.038Z,27.16
2023-03-18T15:42:58.753Z,27.20
2023-03-18T15:44:16.609Z,27.23
2023-03-18T15:45:21.554Z,26.99
2023-03-18T15:46:33.584Z,27.07
2023-03-18T15:47:35.475Z,26.84
2023-03-18T15:48:55.627Z,27.40
2023-03-18T15:50:00.549Z,27.46
2023-03-18T15:51:05.444Z,27.65
2023-03-18T15:52:08.384Z,27.61
2023-03-18T15:53:18.996Z,27.54
2023-03-18T15:54:30.335Z,27.65
2023-03-18T15:55:47.574Z,27.78
2023-03-18T15:56:52.000Z,27.55
2023-03-18T15:57:57.404Z,28.13
2023-03-18T15:59:16.222Z,28.28
2023-03-18T16:00:19.201Z,27.90
2023-03-18T16:01:21.265Z,27.92
2023-03-18T16:02:23.707Z,28.01
2023-03-18T16:03:29.222Z,27.99
2023-03-18T16:04:34.171Z,28.23
2023-03-18T16:05:37.076Z,28.10
2023-03-18T16:06:40.465Z,27.94
2023-03-18T16:07:42.641Z,28.13
2023-03-18T16:08:46.178Z,27.93
2023-03-18T16:09:48.850Z,28.52
2023-03-18T16:10:53.651Z,28.34
2023-03-18T16:12:05.813Z,28.20
2023-03-18T16:13:17.470Z,28.47
2023-03-18T16:14:22.909Z,28.78
2023-03-18T16:15:32.204Z,28.68
2023-03-18T16:16:43.167Z,28.80
2023-03-18T16:17:45.983Z,28.91
2023-03-18T16:18:48.995Z,28.92
2023-03-18T16:19:55.240Z,29.42
2023-03-18T16:20:57.344Z,28.78
2023-03-18T16:22:00.131Z,28.99
2023-03-18T16:23:02.073Z,29.01
2023-03-18T16:24:04.132Z,28.96
2023-03-18T16:25:09.484Z,29.43
2023-03-18T16:26:18.201Z,29.67
2023-03-18T16:27:36.396Z,29.55
2023-03-18T16:28:38.365Z,29.65
2023-03-18T16:29:40.809Z,29.70
2023-03-18T16:30:42.857Z,29.56
2023-03-18T16:31:46.228Z,29.60
2023-03-18T16:32:48.407Z,29.92
2023-03-18T16:33:52.908Z,30.50
2023-03-18T16:34:56.495Z,29.87
2023-03-18T16:36:01.644Z,30.27
2023-03-18T16:37:03.684Z,29.93
2023-03-18T16:38:06.605Z,30.41
2023-03-18T16:39:17.578Z,30.31
2023-03-18T16:40:24.991Z,30.88
2023-03-18T16:41:27.221Z,30.83
2023-03-18T16:42:29.182Z,30.74
2023-03-18T16:43:32.289Z,30.67
2023-03-18T16:44:35.702Z,30.78
2023-03-18T16:45:37.904Z,30.73
2023-03-18T16:46:44.066Z,31.19
2023-03-18T16:47:52.358Z,31.39
2023-03-18T16:48:55.511Z,31.23
2023-03-18T16:49:58.529Z,31.44
2023-03-18T16:51:02.568Z,31.28
2023-03-18T16:52:07.428Z,31.73
2023-03-18T16:53:19.448Z,32.39
2023-03-18T16:54:23.175Z,31.47
2023-03-18T16:55:26.956Z,31.79
2023-03-18T16:56:29.531Z,32.01
2023-03-18T17:00:55.628Z,32.25
2023-03-18T17:06:37.842Z,33.15
2023-03-18T17:24:37.167Z,35.52
2023-03-18T17:32:22.430Z,36.39
2023-03-18T17:37:33.398Z,36.99
2023-03-18T17:39:41.357Z,37.55
2023-03-18T18:26:24.473Z,42.26
2023-03-18T18:28:34.319Z,42.75
2023-03-18T20:02:52.430Z,49.77
2023-03-18T20:04:02.615Z,49.40